Mertzig, Luxembourg
Current Conditions -  °F | °C
As of 5:20 PM on Saturday 25 Oct 2014 (Local Time) from ELLX Reporting Station
Broken Clouds Broken Clouds  
Wind Chill: 55°   Ceiling: 7000
Heat Index: 55°   Visibility: 6mi
Dew Point: 50°   Wind: 3mph
Humidity: 82%   Direction: NA
Pressure: 30.15"   Gusts: NA
Location:  49.83°N, 6.01°E
Report Text: ELLX 251520Z VRB03KT 9999 FEW015 BKN070 13/10 Q1021 NOSIG
Loading
Personal Weather Stations






























Interactive Weather Map
Tropical Storm Tracking
New forecast layout! Learn more

10-Day Weather Forecast

Advertisements
Track Severe Weather on mobile